createdAt,value
2022-10-12T00:00:00.159Z,1.4
2022-10-12T00:01:00.175Z,1.4
2022-10-12T00:02:00.334Z,1.4
2022-10-12T00:03:00.159Z,1.4
2022-10-12T00:04:00.149Z,1.4
2022-10-12T00:05:00.158Z,1.4
2022-10-12T00:06:00.132Z,1.4
2022-10-12T00:07:00.146Z,1.6
2022-10-12T00:08:00.144Z,1.6
2022-10-12T00:09:00.159Z,1.6
2022-10-12T00:10:00.391Z,1.6
2022-10-12T00:11:00.581Z,1.6
2022-10-12T00:12:00.176Z,1.6
2022-10-12T00:13:00.150Z,1.6
2022-10-12T00:14:00.173Z,1.6
2022-10-12T00:15:00.172Z,1.6
2022-10-12T00:16:02.496Z,1.6
2022-10-12T00:17:00.150Z,1.6
2022-10-12T00:18:00.138Z,1.6
2022-10-12T00:19:00.247Z,1.6
2022-10-12T00:20:00.157Z,1.6
2022-10-12T00:21:01.035Z,1.6
2022-10-12T00:22:00.382Z,1.6
2022-10-12T00:23:00.159Z,1.6
2022-10-12T00:24:00.686Z,1.6
2022-10-12T00:25:00.152Z,1.6
2022-10-12T00:26:01.361Z,1.4
2022-10-12T00:27:00.154Z,1.4
2022-10-12T00:28:00.152Z,1.4
2022-10-12T00:29:00.867Z,1.4
2022-10-12T00:30:00.338Z,1.4
2022-10-12T00:31:00.484Z,1.4
2022-10-12T00:32:00.153Z,1.4
2022-10-12T00:33:00.178Z,1.4
2022-10-12T00:34:01.010Z,1.4
2022-10-12T00:35:00.152Z,1.4
2022-10-12T00:36:09.301Z,1.4
2022-10-12T00:37:00.175Z,1.4
2022-10-12T00:38:00.168Z,1.4
2022-10-12T00:39:00.613Z,1.4
2022-10-12T00:40:00.167Z,1.4
2022-10-12T00:41:00.153Z,1.4
2022-10-12T00:42:00.148Z,1.4
2022-10-12T00:43:00.167Z,1.4
2022-10-12T00:44:00.163Z,1.4
2022-10-12T00:45:00.155Z,1.4
2022-10-12T00:46:02.396Z,1.4
2022-10-12T00:47:01.915Z,1.4
2022-10-12T00:48:00.192Z,1.4
2022-10-12T00:49:10.094Z,1.4
2022-10-12T00:50:10.097Z,1.4
2022-10-12T00:51:00.650Z,1.4
2022-10-12T00:52:03.872Z,1.4
2022-10-12T00:53:07.912Z,1.4
2022-10-12T00:54:03.211Z,1.4
2022-10-12T00:55:00.512Z,1.4
2022-10-12T00:56:01.761Z,1.4
2022-10-12T00:57:02.058Z,1.4
2022-10-12T00:58:00.384Z,1.4
2022-10-12T00:59:01.952Z,1.4
2022-10-12T01:00:03.465Z,1.4
2022-10-12T01:01:01.583Z,1.4
2022-10-12T01:02:00.222Z,1.4
2022-10-12T01:03:00.645Z,1.4
2022-10-12T01:04:01.012Z,1.4
2022-10-12T01:05:00.920Z,1.4
2022-10-12T01:06:00.258Z,1.4
2022-10-12T01:07:00.180Z,1.4
2022-10-12T01:08:00.177Z,1.4
2022-10-12T01:09:00.640Z,1.4
2022-10-12T01:10:00.706Z,1.4
2022-10-12T01:11:00.167Z,1.4
2022-10-12T01:12:02.992Z,1.4
2022-10-12T01:13:00.460Z,1.4
2022-10-12T01:14:00.366Z,1.4
2022-10-12T01:15:00.331Z,1.4
2022-10-12T01:16:10.118Z,1.4
2022-10-12T01:17:00.160Z,1.4
2022-10-12T01:18:03.540Z,1.4
2022-10-12T01:19:10.101Z,1.4
2022-10-12T01:20:10.105Z,1.4
2022-10-12T01:21:03.941Z,1.4
2022-10-12T01:22:02.204Z,1.4
2022-10-12T01:23:10.090Z,1.4
2022-10-12T01:24:10.106Z,1.4
2022-10-12T01:25:07.592Z,1.4
2022-10-12T01:26:10.115Z,1.6
2022-10-12T01:27:10.102Z,1.6
2022-10-12T01:28:10.150Z,1.6
2022-10-12T01:29:10.108Z,1.6
2022-10-12T01:30:05.049Z,1.6
2022-10-12T01:31:07.931Z,1.6
2022-10-12T01:32:10.103Z,1.6
2022-10-12T01:33:03.417Z,1.6
2022-10-12T01:34:08.602Z,1.6
2022-10-12T01:35:04.307Z,1.6
2022-10-12T01:36:05.958Z,1.6
2022-10-12T01:37:04.093Z,1.6
2022-10-12T01:38:10.091Z,1.6
2022-10-12T01:39:06.360Z,1.6
2022-10-12T01:40:02.521Z,1.6
2022-10-12T01:41:05.737Z,1.6
2022-10-12T01:42:05.180Z,1.6
2022-10-12T01:43:00.685Z,1.6
2022-10-12T01:44:00.277Z,1.6
2022-10-12T01:45:01.158Z,1.6
2022-10-12T01:46:10.089Z,1.5
2022-10-12T01:47:00.160Z,1.5
2022-10-12T01:48:00.570Z,1.5
2022-10-12T01:49:00.821Z,1.5
2022-10-12T01:50:01.651Z,1.5
2022-10-12T01:51:01.251Z,1.5
2022-10-12T01:52:00.138Z,1.5
2022-10-12T01:53:10.089Z,1.5
2022-10-12T01:54:08.411Z,1.5
2022-10-12T01:55:00.139Z,1.5
2022-10-12T01:56:07.859Z,1.5
2022-10-12T01:57:00.132Z,1.5
2022-10-12T01:58:10.089Z,1.5
2022-10-12T01:59:10.088Z,1.5
2022-10-12T02:00:03.405Z,1.5
2022-10-12T02:01:10.179Z,1.5
2022-10-12T02:02:05.821Z,1.5
2022-10-12T02:03:10.091Z,1.5
2022-10-12T02:04:10.095Z,1.5
2022-10-12T02:05:03.395Z,1.5
2022-10-12T02:06:02.525Z,1.5
2022-10-12T02:07:03.721Z,1.5
2022-10-12T02:08:03.551Z,1.5
2022-10-12T02:09:04.983Z,1.5
2022-10-12T02:10:01.303Z,1.5
2022-10-12T02:11:10.087Z,1.5
2022-10-12T02:12:05.807Z,1.5
2022-10-12T02:13:01.823Z,1.5
2022-10-12T02:14:01.150Z,1.5
2022-10-12T02:15:03.117Z,1.5
2022-10-12T02:16:02.207Z,1.5
2022-10-12T02:17:02.564Z,1.5
2022-10-12T02:18:01.874Z,1.5
2022-10-12T02:19:01.986Z,1.5
2022-10-12T02:20:02.541Z,1.5
2022-10-12T02:21:01.608Z,1.5
2022-10-12T02:22:01.358Z,1.5
2022-10-12T02:23:00.763Z,1.5
2022-10-12T02:24:01.672Z,1.5
2022-10-12T02:25:03.098Z,1.5
2022-10-12T02:26:00.771Z,1.3
2022-10-12T02:27:00.334Z,1.3
2022-10-12T02:28:06.675Z,1.3
2022-10-12T02:29:02.028Z,1.3
2022-10-12T02:30:00.502Z,1.3
2022-10-12T02:31:03.411Z,1.3
2022-10-12T02:32:01.158Z,1.3
2022-10-12T02:33:06.453Z,1.3
2022-10-12T02:34:05.025Z,1.3
2022-10-12T02:35:03.491Z,1.3
2022-10-12T02:36:06.810Z,1.3
2022-10-12T02:37:01.142Z,1.3
2022-10-12T02:38:05.201Z,1.3
2022-10-12T02:39:04.262Z,1.3
2022-10-12T02:40:05.585Z,1.3
2022-10-12T02:41:05.317Z,1.3
2022-10-12T02:42:04.916Z,1.3
2022-10-12T02:43:11.441Z,1.3
2022-10-12T02:44:01.207Z,1.3
2022-10-12T02:45:02.931Z,1.3
2022-10-12T02:46:00.690Z,1.4
2022-10-12T02:47:01.248Z,1.4
2022-10-12T02:48:00.558Z,1.4
2022-10-12T02:49:01.297Z,1.4
2022-10-12T02:50:01.203Z,1.4
2022-10-12T02:51:01.026Z,1.4
2022-10-12T02:52:01.064Z,1.4
2022-10-12T02:53:02.119Z,1.4
2022-10-12T02:54:00.765Z,1.4
2022-10-12T02:55:00.175Z,1.4
2022-10-12T02:56:02.828Z,1.4
2022-10-12T02:57:00.148Z,1.4
2022-10-12T02:58:00.175Z,1.4
2022-10-12T02:59:00.185Z,1.4
2022-10-12T03:00:00.187Z,1.4
2022-10-12T03:01:00.204Z,1.4
2022-10-12T03:02:00.159Z,1.4
2022-10-12T03:03:00.150Z,1.4
2022-10-12T03:04:00.143Z,1.4
2022-10-12T03:05:00.155Z,1.4
2022-10-12T03:06:00.223Z,1.5
2022-10-12T03:07:00.155Z,1.5
2022-10-12T03:08:00.189Z,1.5
2022-10-12T03:09:00.396Z,1.5
2022-10-12T03:10:00.178Z,1.5
2022-10-12T03:11:01.078Z,1.5
2022-10-12T03:12:00.150Z,1.5
2022-10-12T03:13:00.164Z,1.5
2022-10-12T03:14:00.178Z,1.5
2022-10-12T03:15:00.179Z,1.5
2022-10-12T03:16:01.179Z,1.5
2022-10-12T03:17:00.160Z,1.5
2022-10-12T03:18:00.181Z,1.5
2022-10-12T03:19:00.159Z,1.5
2022-10-12T03:20:00.180Z,1.5
2022-10-12T03:21:00.245Z,1.5
2022-10-12T03:22:00.155Z,1.5
2022-10-12T03:23:00.191Z,1.5
2022-10-12T03:24:00.164Z,1.5
2022-10-12T03:25:00.195Z,1.5
2022-10-12T03:26:00.175Z,1.4
2022-10-12T03:27:00.185Z,1.4
2022-10-12T03:28:00.173Z,1.4
2022-10-12T03:29:00.180Z,1.4
2022-10-12T03:30:00.173Z,1.4
2022-10-12T03:31:00.158Z,1.4
2022-10-12T03:32:00.160Z,1.4
2022-10-12T03:33:00.160Z,1.4
2022-10-12T03:34:00.177Z,1.4
2022-10-12T03:35:00.162Z,1.4
2022-10-12T03:36:00.173Z,1.4
2022-10-12T03:37:00.157Z,1.4
2022-10-12T03:38:00.171Z,1.4
2022-10-12T03:39:00.177Z,1.4
2022-10-12T03:40:00.196Z,1.4
2022-10-12T03:41:05.702Z,1.4
2022-10-12T03:42:00.194Z,1.4
2022-10-12T03:43:00.204Z,1.4
2022-10-12T03:44:00.225Z,1.4
2022-10-12T03:45:00.184Z,1.4
2022-10-12T03:46:00.284Z,1.6
2022-10-12T03:47:00.166Z,1.6
2022-10-12T03:48:04.707Z,1.6
2022-10-12T03:49:00.175Z,1.6
2022-10-12T03:50:00.160Z,1.6
2022-10-12T03:51:00.178Z,1.6
2022-10-12T03:52:00.167Z,1.6
2022-10-12T03:53:00.996Z,1.6
2022-10-12T03:54:00.165Z,1.6
2022-10-12T03:55:00.189Z,1.6
2022-10-12T03:56:00.169Z,1.6
2022-10-12T03:57:00.212Z,1.6
2022-10-12T03:58:00.245Z,1.6
2022-10-12T03:59:00.175Z,1.6
2022-10-12T04:00:00.184Z,1.6
2022-10-12T04:01:00.288Z,1.6
2022-10-12T04:02:00.174Z,1.6
2022-10-12T04:03:00.182Z,1.6
2022-10-12T04:04:00.178Z,1.6
2022-10-12T04:05:00.179Z,1.6
2022-10-12T04:06:00.178Z,2.1
2022-10-12T04:07:00.140Z,2.1
2022-10-12T04:08:00.145Z,2.1
2022-10-12T04:09:00.149Z,2.1
2022-10-12T04:10:00.486Z,2.1
2022-10-12T04:11:00.149Z,2.1
2022-10-12T04:12:00.491Z,2.1
2022-10-12T04:13:00.149Z,2.1
2022-10-12T04:14:00.234Z,2.1
2022-10-12T04:15:00.155Z,2.1
2022-10-12T04:16:01.511Z,2.1
2022-10-12T04:17:00.164Z,2.1
2022-10-12T04:18:00.152Z,2.1
2022-10-12T04:19:00.147Z,2.1
2022-10-12T04:20:00.149Z,2.1
2022-10-12T04:21:00.649Z,2.1
2022-10-12T04:22:00.152Z,2.1
2022-10-12T04:23:00.174Z,2.1
2022-10-12T04:24:00.152Z,2.1
2022-10-12T04:25:00.164Z,2.1
2022-10-12T04:26:00.154Z,2.1
2022-10-12T04:27:00.163Z,2.1
2022-10-12T04:28:00.184Z,2.1
2022-10-12T04:29:00.155Z,2.1
2022-10-12T04:30:00.183Z,2.1
2022-10-12T04:31:00.164Z,2.1
2022-10-12T04:32:00.167Z,2.1
2022-10-12T04:33:00.154Z,2.1
2022-10-12T04:34:00.149Z,2.1
2022-10-12T04:35:00.164Z,2.1
2022-10-12T04:36:00.150Z,2.1
2022-10-12T04:37:00.151Z,2.1
2022-10-12T04:38:00.160Z,2.1
2022-10-12T04:39:01.332Z,2.1
2022-10-12T04:40:00.177Z,2.1
2022-10-12T04:41:00.222Z,2.1
2022-10-12T04:42:00.158Z,2.1
2022-10-12T04:43:00.160Z,2.1
2022-10-12T04:44:00.276Z,2.1
2022-10-12T04:45:00.172Z,1.7
2022-10-12T04:46:00.177Z,1.7
2022-10-12T04:47:01.654Z,1.7
2022-10-12T04:48:00.153Z,1.7
2022-10-12T04:49:00.156Z,1.7
2022-10-12T04:50:00.167Z,1.7
2022-10-12T04:51:00.207Z,1.7
2022-10-12T04:52:00.150Z,1.7
2022-10-12T04:53:00.161Z,1.7
2022-10-12T04:54:00.152Z,1.7
2022-10-12T04:55:00.163Z,1.7
2022-10-12T04:56:01.841Z,1.7
2022-10-12T04:57:00.172Z,1.7
2022-10-12T04:58:00.155Z,1.7
2022-10-12T04:59:00.158Z,1.7
2022-10-12T05:00:00.164Z,1.7
2022-10-12T05:01:00.179Z,1.7
2022-10-12T05:02:00.245Z,1.7
2022-10-12T05:03:00.207Z,1.7
2022-10-12T05:04:00.159Z,1.7
2022-10-12T05:05:00.196Z,1.6
2022-10-12T05:06:00.262Z,1.6
2022-10-12T05:07:00.160Z,1.6
2022-10-12T05:08:00.234Z,1.6
2022-10-12T05:09:00.164Z,1.6
2022-10-12T05:10:00.245Z,1.6
2022-10-12T05:11:00.219Z,1.6
2022-10-12T05:12:00.149Z,1.6
2022-10-12T05:13:00.185Z,1.6
2022-10-12T05:14:00.162Z,1.6
2022-10-12T05:15:00.160Z,1.6
2022-10-12T05:16:00.254Z,1.6
2022-10-12T05:17:00.151Z,1.6
2022-10-12T05:18:00.175Z,1.6
2022-10-12T05:19:00.163Z,1.6
2022-10-12T05:20:00.158Z,1.6
2022-10-12T05:21:00.149Z,1.6
2022-10-12T05:22:00.298Z,1.6
2022-10-12T05:23:00.251Z,1.6
2022-10-12T05:24:00.149Z,1.6
2022-10-12T05:25:00.330Z,2.0
2022-10-12T05:26:00.221Z,2.0
2022-10-12T05:27:00.144Z,2.0
2022-10-12T05:28:00.151Z,2.0
2022-10-12T05:29:00.245Z,2.0
2022-10-12T05:30:00.170Z,2.0
2022-10-12T05:31:00.157Z,2.0
2022-10-12T05:32:00.167Z,2.0
2022-10-12T05:33:00.152Z,2.0
2022-10-12T05:34:00.147Z,2.0
2022-10-12T05:35:00.173Z,2.0
2022-10-12T05:36:00.297Z,2.0
2022-10-12T05:37:00.158Z,2.0
2022-10-12T05:38:00.151Z,2.0
2022-10-12T05:39:00.153Z,2.0
2022-10-12T05:40:00.187Z,2.0
2022-10-12T05:41:00.918Z,2.0
2022-10-12T05:42:00.156Z,2.0
2022-10-12T05:43:00.161Z,2.0
2022-10-12T05:44:00.151Z,2.0
2022-10-12T05:45:00.381Z,1.6
2022-10-12T05:46:00.154Z,1.6
2022-10-12T05:47:00.153Z,1.6
2022-10-12T05:48:00.140Z,1.6
2022-10-12T05:49:00.144Z,1.6
2022-10-12T05:50:00.294Z,1.6
2022-10-12T05:51:00.154Z,1.6
2022-10-12T05:52:00.259Z,1.6
2022-10-12T05:53:00.154Z,1.6
2022-10-12T05:54:00.155Z,1.6
2022-10-12T05:55:00.198Z,1.6
2022-10-12T05:56:00.319Z,1.6
2022-10-12T05:57:00.181Z,1.6
2022-10-12T05:58:00.182Z,1.6
2022-10-12T05:59:00.158Z,1.6
2022-10-12T06:00:00.152Z,1.6
2022-10-12T06:01:04.540Z,1.6
2022-10-12T06:02:00.248Z,1.6
2022-10-12T06:03:00.151Z,1.6
2022-10-12T06:04:00.148Z,1.6
2022-10-12T06:05:00.265Z,1.7
2022-10-12T06:06:00.163Z,1.7
2022-10-12T06:07:00.146Z,1.7
2022-10-12T06:08:00.142Z,1.7
2022-10-12T06:09:00.152Z,1.7
2022-10-12T06:10:00.170Z,1.7
2022-10-12T06:11:00.270Z,1.7
2022-10-12T06:12:00.185Z,1.7
2022-10-12T06:13:00.587Z,1.7
2022-10-12T06:14:00.146Z,1.7
2022-10-12T06:15:00.162Z,1.7
2022-10-12T06:16:00.155Z,1.7
2022-10-12T06:17:00.200Z,1.7
2022-10-12T06:18:00.151Z,1.7
2022-10-12T06:19:00.203Z,1.7
2022-10-12T06:20:00.155Z,1.7
2022-10-12T06:21:32.360Z,1.7
2022-10-12T06:22:00.199Z,1.7
2022-10-12T06:23:00.189Z,1.7
2022-10-12T06:24:00.166Z,1.7
2022-10-12T06:25:00.151Z,1.8
2022-10-12T06:26:00.157Z,1.8
2022-10-12T06:27:00.183Z,1.8
2022-10-12T06:28:00.155Z,1.8
2022-10-12T06:29:00.154Z,1.8
2022-10-12T06:30:00.166Z,1.8
2022-10-12T06:31:00.186Z,1.8
2022-10-12T06:32:00.166Z,1.8
2022-10-12T06:33:00.158Z,1.8
2022-10-12T06:34:00.163Z,1.8
2022-10-12T06:35:00.161Z,1.8
2022-10-12T06:36:00.162Z,1.8
2022-10-12T06:37:01.964Z,1.8
2022-10-12T06:38:00.421Z,1.8
2022-10-12T06:39:00.299Z,1.8
2022-10-12T06:40:00.311Z,1.8
2022-10-12T06:41:00.155Z,1.8
2022-10-12T06:42:00.156Z,1.8
2022-10-12T06:43:00.140Z,1.8
2022-10-12T06:44:00.166Z,1.8
2022-10-12T06:45:00.154Z,1.6
2022-10-12T06:46:00.239Z,1.6
2022-10-12T06:47:00.144Z,1.6
2022-10-12T06:48:00.178Z,1.6
2022-10-12T06:49:00.146Z,1.6
2022-10-12T06:50:00.149Z,1.6
2022-10-12T06:51:00.161Z,1.6
2022-10-12T06:52:00.179Z,1.6
2022-10-12T06:53:00.153Z,1.6
2022-10-12T06:54:00.167Z,1.6
2022-10-12T06:55:00.559Z,1.6
2022-10-12T06:56:08.091Z,1.6
2022-10-12T06:57:00.142Z,1.6
2022-10-12T06:58:00.156Z,1.6
2022-10-12T06:59:00.162Z,1.6
2022-10-12T07:00:00.159Z,1.6
2022-10-12T07:01:00.778Z,1.6
2022-10-12T07:02:00.219Z,1.6
2022-10-12T07:03:00.151Z,1.6
2022-10-12T07:04:00.981Z,1.6
2022-10-12T07:05:00.361Z,1.5
2022-10-12T07:06:07.819Z,1.5
2022-10-12T07:07:00.154Z,1.5
2022-10-12T07:08:00.162Z,1.5
2022-10-12T07:09:00.154Z,1.5
2022-10-12T07:10:00.259Z,1.5
2022-10-12T07:11:01.917Z,1.5
2022-10-12T07:12:00.141Z,1.5
2022-10-12T07:13:00.141Z,1.5
2022-10-12T07:14:00.163Z,1.5
2022-10-12T07:15:00.152Z,1.5
2022-10-12T07:16:00.382Z,1.5
2022-10-12T07:17:00.168Z,1.5
2022-10-12T07:18:00.158Z,1.5
2022-10-12T07:19:00.159Z,1.5
2022-10-12T07:20:00.166Z,1.5
2022-10-12T07:21:00.193Z,1.5
2022-10-12T07:22:00.523Z,1.5
2022-10-12T07:23:00.154Z,1.5
2022-10-12T07:24:00.165Z,1.5
2022-10-12T07:25:00.316Z,1.5
2022-10-12T07:26:00.148Z,1.5
2022-10-12T07:27:00.516Z,1.5
2022-10-12T07:28:00.185Z,1.5
2022-10-12T07:29:00.154Z,1.5
2022-10-12T07:30:00.343Z,1.5
2022-10-12T07:31:01.214Z,1.5
2022-10-12T07:32:00.161Z,1.5
2022-10-12T07:33:00.149Z,1.5
2022-10-12T07:34:00.146Z,1.5
2022-10-12T07:35:00.161Z,1.5
2022-10-12T07:36:13.867Z,1.5
2022-10-12T07:37:00.243Z,1.5
2022-10-12T07:38:00.145Z,1.5
2022-10-12T07:39:00.145Z,1.5
2022-10-12T07:40:00.150Z,1.5
2022-10-12T07:41:01.055Z,1.5
2022-10-12T07:42:00.217Z,1.5
2022-10-12T07:43:15.304Z,1.5
2022-10-12T07:44:00.149Z,1.5
2022-10-12T07:45:00.150Z,1.5
2022-10-12T07:46:00.153Z,1.5
2022-10-12T07:47:00.207Z,1.5
2022-10-12T07:48:00.152Z,1.5
2022-10-12T07:49:00.149Z,1.5
2022-10-12T07:50:00.146Z,1.5
2022-10-12T07:51:02.468Z,1.5
2022-10-12T07:52:00.150Z,1.5
2022-10-12T07:53:00.153Z,1.5
2022-10-12T07:54:00.173Z,1.5
2022-10-12T07:55:00.177Z,1.5
2022-10-12T07:56:02.081Z,1.5
2022-10-12T07:57:00.167Z,1.5
2022-10-12T07:58:00.545Z,1.5
2022-10-12T07:59:00.312Z,1.5
2022-10-12T08:00:00.196Z,1.5
2022-10-12T08:01:04.428Z,1.5
2022-10-12T08:02:00.241Z,1.5
2022-10-12T08:03:00.151Z,1.5
2022-10-12T08:04:02.028Z,1.5
2022-10-12T08:05:00.156Z,1.4
2022-10-12T08:06:06.552Z,1.4
2022-10-12T08:07:00.187Z,1.4
2022-10-12T08:08:00.168Z,1.4
2022-10-12T08:09:00.652Z,1.4
2022-10-12T08:10:00.151Z,1.4
2022-10-12T08:11:00.438Z,1.4
2022-10-12T08:12:00.209Z,1.4
2022-10-12T08:13:00.263Z,1.4
2022-10-12T08:14:00.146Z,1.4
2022-10-12T08:15:00.191Z,1.4
2022-10-12T08:16:01.115Z,1.4
2022-10-12T08:17:00.164Z,1.4
2022-10-12T08:18:00.155Z,1.4
2022-10-12T08:19:00.144Z,1.4
2022-10-12T08:20:00.151Z,1.4
2022-10-12T08:21:02.584Z,1.4
2022-10-12T08:22:00.173Z,1.4
2022-10-12T08:23:00.170Z,1.4
2022-10-12T08:24:00.186Z,1.4
2022-10-12T08:25:00.157Z,1.4
2022-10-12T08:26:00.516Z,1.4
2022-10-12T08:27:01.616Z,1.4
2022-10-12T08:28:00.164Z,1.4
2022-10-12T08:29:00.728Z,1.4
2022-10-12T08:30:00.157Z,1.4
2022-10-12T08:31:04.271Z,1.4
2022-10-12T08:32:00.158Z,1.4
2022-10-12T08:33:00.146Z,1.4
2022-10-12T08:34:00.157Z,1.4
2022-10-12T08:35:00.153Z,1.4
2022-10-12T08:36:01.342Z,1.4
2022-10-12T08:37:00.148Z,1.4
2022-10-12T08:38:00.149Z,1.4
2022-10-12T08:39:00.195Z,1.4
2022-10-12T08:40:03.350Z,1.4
2022-10-12T08:41:10.168Z,1.4
2022-10-12T08:42:07.345Z,1.4
2022-10-12T08:43:00.129Z,1.4
2022-10-12T08:44:06.313Z,1.9
2022-10-12T08:45:05.264Z,1.9
2022-10-12T08:46:01.116Z,1.9
2022-10-12T08:47:08.859Z,1.9
2022-10-12T08:48:07.696Z,1.9
2022-10-12T08:49:01.788Z,1.9
2022-10-12T08:50:01.087Z,1.9
2022-10-12T08:51:02.168Z,1.9
2022-10-12T08:52:02.630Z,1.9
2022-10-12T08:53:10.083Z,1.9
2022-10-12T08:54:03.695Z,1.9
2022-10-12T08:55:05.802Z,1.9
2022-10-12T08:56:00.189Z,1.9
2022-10-12T08:57:00.159Z,1.9
2022-10-12T08:58:00.579Z,1.9
2022-10-12T08:59:00.480Z,1.9
2022-10-12T09:00:00.150Z,1.9
2022-10-12T09:01:12.839Z,1.9
2022-10-12T09:02:10.163Z,1.9
2022-10-12T09:03:00.136Z,1.9
2022-10-12T09:04:10.096Z,1.7
2022-10-12T09:05:02.477Z,1.7
2022-10-12T09:06:10.086Z,1.7
2022-10-12T09:07:05.171Z,1.7
2022-10-12T09:08:02.847Z,1.7
2022-10-12T09:09:10.090Z,1.7
2022-10-12T09:10:10.094Z,1.7
2022-10-12T09:11:08.837Z,1.7
2022-10-12T09:12:04.285Z,1.7
2022-10-12T09:13:08.403Z,1.7
2022-10-12T09:14:00.137Z,1.7
2022-10-12T09:15:01.547Z,1.7
2022-10-12T09:16:03.143Z,1.7
2022-10-12T09:17:01.581Z,1.7
2022-10-12T09:18:01.347Z,1.7
2022-10-12T09:19:03.626Z,1.7
2022-10-12T09:20:03.126Z,1.7
2022-10-12T09:21:01.528Z,1.7
2022-10-12T09:22:01.533Z,1.7
2022-10-12T09:23:03.943Z,1.7
2022-10-12T09:24:02.657Z,1.4
2022-10-12T09:25:01.092Z,1.4
2022-10-12T09:26:03.617Z,1.4
2022-10-12T09:27:04.954Z,1.4
2022-10-12T09:28:10.141Z,1.4
2022-10-12T09:29:00.724Z,1.4
2022-10-12T09:30:01.561Z,1.4
2022-10-12T09:31:10.086Z,1.4
2022-10-12T09:32:07.536Z,1.4
2022-10-12T09:33:07.847Z,1.4
2022-10-12T09:34:03.015Z,1.4
2022-10-12T09:35:00.453Z,1.4
2022-10-12T09:36:00.157Z,1.4
2022-10-12T09:37:02.342Z,1.4
2022-10-12T09:38:00.241Z,1.4
2022-10-12T09:39:02.317Z,1.4
2022-10-12T09:40:00.437Z,1.4
2022-10-12T09:41:00.175Z,1.4
2022-10-12T09:42:00.239Z,1.4
2022-10-12T09:43:01.253Z,1.4
2022-10-12T09:44:01.437Z,1.2
2022-10-12T09:45:01.978Z,1.2
2022-10-12T09:46:02.955Z,1.2
2022-10-12T09:47:02.569Z,1.2
2022-10-12T09:48:07.537Z,1.2
2022-10-12T09:49:00.415Z,1.2
2022-10-12T09:50:03.028Z,1.2
2022-10-12T09:51:01.574Z,1.2
2022-10-12T09:52:01.128Z,1.2
2022-10-12T09:53:00.222Z,1.2
2022-10-12T09:54:01.592Z,1.2
2022-10-12T09:55:04.812Z,1.2
2022-10-12T09:56:04.938Z,1.2
2022-10-12T09:57:01.420Z,1.2
2022-10-12T09:58:00.147Z,1.2
2022-10-12T09:59:01.363Z,1.2
2022-10-12T10:00:00.882Z,1.2
2022-10-12T10:01:10.083Z,1.2
2022-10-12T10:02:01.213Z,1.2
2022-10-12T10:03:01.131Z,1.2
2022-10-12T10:04:09.952Z,1.2
2022-10-12T10:05:10.094Z,1.2
2022-10-12T10:06:02.556Z,1.2
2022-10-12T10:07:10.084Z,1.2
2022-10-12T10:08:10.090Z,1.2
2022-10-12T10:09:00.159Z,1.2
2022-10-12T10:10:03.434Z,1.2
2022-10-12T10:11:00.733Z,1.2
2022-10-12T10:12:10.084Z,1.2
2022-10-12T10:13:00.457Z,1.2
2022-10-12T10:14:00.448Z,1.2
2022-10-12T10:15:00.242Z,1.2
2022-10-12T10:16:02.052Z,1.2
2022-10-12T10:17:00.160Z,1.2
2022-10-12T10:18:01.878Z,1.2
2022-10-12T10:19:00.302Z,1.2
2022-10-12T10:20:02.197Z,1.2
2022-10-12T10:21:01.630Z,1.2
2022-10-12T10:22:04.518Z,1.2
2022-10-12T10:23:02.378Z,1.2
2022-10-12T10:24:01.575Z,1.5
2022-10-12T10:25:00.950Z,1.5
2022-10-12T10:26:03.453Z,1.5
2022-10-12T10:27:02.110Z,1.5
2022-10-12T10:28:10.141Z,1.5
2022-10-12T10:29:10.088Z,1.5
2022-10-12T10:30:25.465Z,1.5
2022-10-12T10:31:01.552Z,1.5
2022-10-12T10:32:10.088Z,1.5
2022-10-12T10:33:10.098Z,1.5
2022-10-12T10:34:10.092Z,1.5
2022-10-12T10:35:10.096Z,1.5
2022-10-12T10:36:10.094Z,1.5
2022-10-12T10:37:00.191Z,1.5
2022-10-12T10:38:00.158Z,1.5
2022-10-12T10:39:01.740Z,1.5
2022-10-12T10:40:00.729Z,1.5
2022-10-12T10:41:01.880Z,1.5
2022-10-12T10:42:09.002Z,1.5
2022-10-12T10:43:02.790Z,1.5
2022-10-12T10:44:00.611Z,1.0
2022-10-12T10:45:01.466Z,1.0
2022-10-12T10:46:01.630Z,1.0
2022-10-12T10:47:06.711Z,1.0
2022-10-12T10:48:08.389Z,1.0
2022-10-12T10:49:01.396Z,1.0
2022-10-12T10:50:01.467Z,1.0
2022-10-12T10:51:01.902Z,1.0
2022-10-12T10:52:01.075Z,1.0
2022-10-12T10:53:01.789Z,1.0
2022-10-12T10:54:10.094Z,1.0
2022-10-12T10:55:07.525Z,1.0
2022-10-12T10:56:10.085Z,1.0
2022-10-12T10:57:02.336Z,1.0
2022-10-12T10:58:02.475Z,1.0
2022-10-12T10:59:09.639Z,1.0
2022-10-12T11:00:26.359Z,1.0
2022-10-12T11:01:04.869Z,1.0
2022-10-12T11:02:10.155Z,1.0
2022-10-12T11:03:04.979Z,1.0
2022-10-12T11:04:03.320Z,0.8
2022-10-12T11:05:06.818Z,0.8
2022-10-12T11:06:10.086Z,0.8
2022-10-12T11:07:04.029Z,0.8
2022-10-12T11:08:03.768Z,0.8
2022-10-12T11:09:03.512Z,0.8
2022-10-12T11:10:02.639Z,0.8
2022-10-12T11:11:03.329Z,0.8
2022-10-12T11:12:00.150Z,0.8
2022-10-12T11:13:05.188Z,0.8
2022-10-12T11:14:04.083Z,0.8
2022-10-12T11:15:05.505Z,0.8
2022-10-12T11:16:01.148Z,0.8
2022-10-12T11:17:02.981Z,0.8
2022-10-12T11:18:06.751Z,0.8
2022-10-12T11:19:05.468Z,0.8
2022-10-12T11:20:10.102Z,0.8
2022-10-12T11:21:03.050Z,0.8
2022-10-12T11:22:03.554Z,0.8
2022-10-12T11:23:03.400Z,0.8
2022-10-12T11:24:07.605Z,1.4
2022-10-12T11:25:06.186Z,1.4
2022-10-12T11:26:05.440Z,1.4
2022-10-12T11:27:03.017Z,1.4
2022-10-12T11:28:00.211Z,1.4
2022-10-12T11:29:00.450Z,1.4
2022-10-12T11:31:00.648Z,1.4
2022-10-12T11:32:10.088Z,1.4
2022-10-12T11:33:02.392Z,1.4
2022-10-12T11:34:00.571Z,1.4
2022-10-12T11:35:01.317Z,1.4
2022-10-12T11:36:00.635Z,1.4
2022-10-12T11:37:18.700Z,1.4
2022-10-12T11:38:02.124Z,1.4
2022-10-12T11:39:06.714Z,1.4
2022-10-12T11:40:01.424Z,1.4
2022-10-12T11:41:33.932Z,1.4
2022-10-12T11:42:20.997Z,1.4
2022-10-12T11:43:06.572Z,1.4
2022-10-12T11:44:06.288Z,0.6
2022-10-12T11:45:04.330Z,0.6
2022-10-12T11:46:01.273Z,0.6
2022-10-12T11:47:03.471Z,0.6
2022-10-12T11:48:03.826Z,0.6
2022-10-12T11:49:01.148Z,0.6
2022-10-12T11:50:10.102Z,0.6
2022-10-12T11:51:04.115Z,0.6
2022-10-12T11:52:04.344Z,0.6
2022-10-12T11:53:01.101Z,0.6
2022-10-12T11:54:10.105Z,0.6
2022-10-12T11:55:10.093Z,0.6
2022-10-12T11:56:04.533Z,0.6
2022-10-12T11:57:04.097Z,0.6
2022-10-12T11:58:08.768Z,0.6
2022-10-12T11:59:03.027Z,0.6
2022-10-12T12:00:02.301Z,0.6
2022-10-12T12:01:10.084Z,0.6
2022-10-12T12:02:04.954Z,0.6
2022-10-12T12:03:10.149Z,0.6
2022-10-12T12:04:12.359Z,0.8
2022-10-12T12:05:01.137Z,0.8
2022-10-12T12:06:10.087Z,0.8
2022-10-12T12:07:01.145Z,0.8
2022-10-12T12:08:00.178Z,0.8
2022-10-12T12:09:00.141Z,0.8
2022-10-12T12:10:00.160Z,0.8
2022-10-12T12:11:02.785Z,0.8
2022-10-12T12:12:10.090Z,0.8
2022-10-12T12:13:10.091Z,0.8
2022-10-12T12:15:01.359Z,0.8
2022-10-12T12:16:00.131Z,0.8
2022-10-12T12:17:10.088Z,0.8
2022-10-12T12:18:08.580Z,0.8
2022-10-12T12:24:00.210Z,0.6
2022-10-12T12:27:00.205Z,0.6
2022-10-12T12:28:10.207Z,0.6
2022-10-12T12:29:09.244Z,0.6
2022-10-12T13:24:03.981Z,0.5
2022-10-12T13:25:03.567Z,0.5
2022-10-12T13:26:02.005Z,0.5
2022-10-12T13:27:10.079Z,0.5
2022-10-12T13:28:02.831Z,0.5
2022-10-12T13:29:01.546Z,0.5
2022-10-12T13:30:10.096Z,0.5
2022-10-12T13:31:03.303Z,0.5
2022-10-12T13:32:01.570Z,0.5
2022-10-12T13:33:05.235Z,0.5
2022-10-12T13:34:03.395Z,0.5
2022-10-12T13:35:04.888Z,0.5
2022-10-12T13:36:06.288Z,0.5
2022-10-12T13:37:01.158Z,0.5
2022-10-12T13:38:10.092Z,0.5
2022-10-12T13:39:07.263Z,0.5
2022-10-12T13:40:00.208Z,0.5
2022-10-12T13:41:00.244Z,0.5
2022-10-12T13:42:00.601Z,0.5
2022-10-12T13:43:10.084Z,0.4
2022-10-12T13:44:02.675Z,0.4
2022-10-12T13:45:02.203Z,0.4
2022-10-12T13:46:00.500Z,0.4
2022-10-12T13:47:01.121Z,0.4
2022-10-12T13:48:03.644Z,0.4
2022-10-12T13:49:00.905Z,0.4
2022-10-12T13:50:00.289Z,0.4
2022-10-12T13:51:01.094Z,0.4
2022-10-12T13:52:01.598Z,0.4
2022-10-12T13:53:00.166Z,0.4
2022-10-12T13:54:00.410Z,0.4
2022-10-12T13:55:00.532Z,0.4
2022-10-12T13:58:00.194Z,0.4
2022-10-12T13:59:04.145Z,0.4
2022-10-12T14:00:02.982Z,0.4
2022-10-12T14:01:01.265Z,0.4
2022-10-12T14:02:00.985Z,0.4
2022-10-12T14:03:01.353Z,0.4
2022-10-12T14:04:02.366Z,0.4
2022-10-12T14:05:01.006Z,0.4
2022-10-12T14:06:04.217Z,0.4
2022-10-12T14:07:02.866Z,0.4
2022-10-12T14:08:10.090Z,0.4
2022-10-12T14:09:10.090Z,0.4
2022-10-12T14:10:04.722Z,0.4
2022-10-12T14:11:00.828Z,0.4
2022-10-12T14:12:00.256Z,0.4
2022-10-12T14:13:00.651Z,0.4
2022-10-12T14:14:00.752Z,0.4
2022-10-12T14:15:01.161Z,0.4
2022-10-12T14:16:01.073Z,0.4
2022-10-12T14:17:00.241Z,0.4
2022-10-12T14:18:00.211Z,0.4
2022-10-12T14:19:10.086Z,0.4
2022-10-12T14:20:10.087Z,0.4
2022-10-12T14:21:05.272Z,0.4
2022-10-12T14:22:01.111Z,0.4
2022-10-12T14:23:01.763Z,0.4
2022-10-12T14:24:06.893Z,0.4
2022-10-12T14:25:07.567Z,0.4
2022-10-12T14:26:00.362Z,0.4
2022-10-12T14:27:01.503Z,0.4
2022-10-12T14:28:00.134Z,0.4
2022-10-12T14:29:10.088Z,0.4
2022-10-12T14:30:05.154Z,0.4
2022-10-12T14:31:00.198Z,0.4
2022-10-12T14:32:02.950Z,0.4
2022-10-12T14:33:09.002Z,0.4
2022-10-12T14:34:10.095Z,0.4
2022-10-12T14:35:09.247Z,0.4
2022-10-12T14:36:10.088Z,0.4
2022-10-12T14:37:02.938Z,0.4
2022-10-12T14:38:10.136Z,0.4
2022-10-12T14:39:10.101Z,0.4
2022-10-12T14:40:10.090Z,0.4
2022-10-12T14:41:10.090Z,0.4
2022-10-12T14:42:02.633Z,0.4
2022-10-12T14:43:01.153Z,0.4
2022-10-12T14:44:10.991Z,0.4
2022-10-12T14:45:01.380Z,0.4
2022-10-12T14:46:00.182Z,0.4
2022-10-12T14:47:02.312Z,0.4
2022-10-12T14:48:01.075Z,0.4
2022-10-12T14:49:00.240Z,0.4
2022-10-12T14:50:00.522Z,0.4
2022-10-12T14:51:00.161Z,0.4